Airfield :
LOGIN :

Register | Disclaimer

   EN    FR    IT 

 










Legend :    VFR   Marginal VFR   IFR   Intensive IFR   Very Intensive IFR
Visi :
Ceiling :
>= 8 km
>= 3000ft
5 to 8 km
1000 to 3000 ft
1500m to 5 km
500 to 1000 ft
800 to 1500m
200 to 500 ft
< 800m
< 200 ft
Symbols :   Thunderstorms  Fog  Heavy snow  Heavy precipitations  Wind > 20 kt
SIGMETs :     Misc.  Thunderstorms  Icing  Turbulence  Mountain Waves  Volcanic Ashes






- Airport Elevation : 82 ft
- IATA code : AAR


EKAH - Aarhus Tirstrup

CURRENT METAR :
  • 212250Z AUTO 05007KT 9999 FEW051/// 04/M02 Q1028

EXPIRED METARs :
  • 212220Z AUTO 03005KT 9999 FEW051/// 03/M03 Q1028
  • 212150Z AUTO 35004KT 9999 FEW050/// SCT180/// 03/M04 Q1028
  • 212120Z AUTO 33004KT 9999 BKN170/// 03/M04 Q1028
  • 212050Z AUTO 35005KT 9999 BKN170/// 03/M05 Q1028
  • 212020Z AUTO 01005KT 9999 OVC170/// 04/M05 Q1028
  • 211950Z AUTO 36005KT 9999 OVC170/// 05/M06 Q1028
  • 211920Z AUTO 35005KT 320V020 9999 OVC150/// 05/M05 Q1028
  • 211850Z AUTO 01005KT 320V040 9999 OVC150/// 06/M05 Q1028
  • 211820Z AUTO 35004KT 9999 OVC150/// 06/M04 Q1028

TAF TAF EKAH
Valid from the 21 at 18:00 until the 22 at 18:00 UTC


211703Z 2118/2218 03008KT 9999 SCT040



MET'MAP, your aeronautical weather chart ! - Copyright ORBIFLY December 2007 - Disclaimer

ORBIFLY MET'MAP TEAM :

Programming & Development : Alexandra Zaïnal
Original concept : Baudouin d'Aumeries
Technical & hardware support : Manuel Goepfert
Assistance : Marc-Olivier Méhu




SOURCES & CREDITS :

   NOAA